createdAt,value
2017-04-08T00:00:01.901Z,0
2017-04-08T00:00:34.210Z,0
2017-04-08T00:01:06.536Z,0
2017-04-08T00:01:38.864Z,0
2017-04-08T00:02:11.208Z,0
2017-04-08T00:02:43.513Z,0
2017-04-08T00:03:15.824Z,0
2017-04-08T00:03:48.130Z,0
2017-04-08T00:04:20.452Z,0
2017-04-08T00:04:52.769Z,0
2017-04-08T00:05:25.070Z,0
2017-04-08T00:05:57.393Z,0
2017-04-08T00:06:29.722Z,0
2017-04-08T00:07:02.129Z,0
2017-04-08T00:07:34.453Z,0
2017-04-08T00:08:06.784Z,0
2017-04-08T00:08:39.094Z,0
2017-04-08T00:09:11.464Z,0
2017-04-08T00:09:43.793Z,0
2017-04-08T00:10:16.100Z,0
2017-04-08T00:10:48.425Z,0
2017-04-08T00:11:20.730Z,0
2017-04-08T00:11:53.048Z,0
2017-04-08T00:12:25.353Z,0
2017-04-08T00:12:57.667Z,0
2017-04-08T00:13:29.968Z,0
2017-04-08T00:14:02.302Z,0
2017-04-08T00:14:34.614Z,0
2017-04-08T00:15:06.941Z,0
2017-04-08T00:15:39.256Z,0
2017-04-08T00:16:11.569Z,0
2017-04-08T00:16:43.892Z,0
2017-04-08T00:17:16.211Z,0
2017-04-08T00:17:48.522Z,0
2017-04-08T00:18:20.826Z,0
2017-04-08T00:18:53.145Z,0
2017-04-08T00:19:25.468Z,0
2017-04-08T00:19:57.774Z,0
2017-04-08T00:20:30.077Z,0
2017-04-08T00:21:02.390Z,0
2017-04-08T00:21:34.701Z,0
2017-04-08T00:22:07.003Z,0
2017-04-08T00:22:39.304Z,0
2017-04-08T00:23:11.600Z,0
2017-04-08T00:23:43.904Z,0
2017-04-08T00:24:16.208Z,0
2017-04-08T00:24:48.514Z,0
2017-04-08T00:25:20.815Z,0
2017-04-08T00:25:53.131Z,0
2017-04-08T00:26:25.470Z,0
2017-04-08T00:26:57.780Z,0
2017-04-08T00:27:30.081Z,0
2017-04-08T00:28:02.384Z,0
2017-04-08T00:28:34.688Z,0
2017-04-08T00:29:06.993Z,0
2017-04-08T00:29:39.302Z,0
2017-04-08T00:30:11.619Z,0
2017-04-08T00:30:43.928Z,0
2017-04-08T00:31:16.241Z,0
2017-04-08T00:31:48.594Z,0
2017-04-08T00:32:20.920Z,0
2017-04-08T00:32:53.246Z,0
2017-04-08T00:33:25.557Z,0
2017-04-08T00:33:57.864Z,0
2017-04-08T00:34:30.180Z,0
2017-04-08T00:35:02.498Z,0
2017-04-08T00:35:34.817Z,0
2017-04-08T00:36:07.138Z,0
2017-04-08T00:36:39.450Z,0
2017-04-08T00:37:11.763Z,0
2017-04-08T00:37:44.079Z,0
2017-04-08T00:38:16.407Z,0
2017-04-08T00:38:48.734Z,0
2017-04-08T00:39:21.066Z,0
2017-04-08T00:39:53.400Z,0
2017-04-08T00:40:25.705Z,0
2017-04-08T00:40:58.020Z,0
2017-04-08T00:41:30.330Z,0
2017-04-08T00:42:02.634Z,0
2017-04-08T00:42:34.982Z,0
2017-04-08T00:43:07.304Z,0
2017-04-08T00:43:39.633Z,0
2017-04-08T00:44:11.950Z,0
2017-04-08T00:44:44.290Z,0
2017-04-08T00:45:16.589Z,0
2017-04-08T00:45:48.899Z,0
2017-04-08T00:46:21.194Z,0
2017-04-08T00:46:53.500Z,0
2017-04-08T00:47:25.801Z,0
2017-04-08T00:47:58.111Z,0
2017-04-08T00:48:30.431Z,0
2017-04-08T00:49:02.759Z,0
2017-04-08T00:49:35.061Z,0
2017-04-08T00:50:07.374Z,0
2017-04-08T00:50:39.683Z,0
2017-04-08T00:51:12.001Z,0
2017-04-08T00:51:44.319Z,0
2017-04-08T00:52:16.630Z,0
2017-04-08T00:52:48.940Z,0
2017-04-08T00:53:21.259Z,0
2017-04-08T00:53:53.573Z,0
2017-04-08T00:54:25.874Z,0
2017-04-08T00:54:58.192Z,0
2017-04-08T00:55:30.514Z,0
2017-04-08T00:56:02.818Z,0
2017-04-08T00:56:35.134Z,0
2017-04-08T00:57:07.444Z,0
2017-04-08T00:57:39.756Z,0
2017-04-08T00:58:12.059Z,0
2017-04-08T00:58:44.382Z,0
2017-04-08T00:59:16.695Z,0
2017-04-08T00:59:49.007Z,0
2017-04-08T01:00:21.310Z,0
2017-04-08T01:00:53.625Z,0
2017-04-08T01:01:25.943Z,0
2017-04-08T01:01:58.274Z,0
2017-04-08T01:02:30.589Z,0
2017-04-08T01:03:02.903Z,0
2017-04-08T01:03:35.220Z,0
2017-04-08T01:04:07.544Z,0
2017-04-08T01:04:39.855Z,0
2017-04-08T01:05:12.178Z,0
2017-04-08T01:05:44.470Z,0
2017-04-08T01:06:16.779Z,0
2017-04-08T01:06:49.092Z,0
2017-04-08T01:07:21.402Z,0
2017-04-08T01:07:53.714Z,0
2017-04-08T01:08:26.022Z,0
2017-04-08T01:08:58.330Z,0
2017-04-08T01:09:30.646Z,0
2017-04-08T01:10:02.967Z,0
2017-04-08T01:10:35.278Z,0
2017-04-08T01:11:07.595Z,0
2017-04-08T01:11:39.912Z,0
2017-04-08T01:12:13.024Z,0
2017-04-08T01:12:45.289Z,0
2017-04-08T01:13:17.522Z,0
2017-04-08T01:13:49.778Z,0
2017-04-08T01:14:22.032Z,0
2017-04-08T01:14:54.279Z,0
2017-04-08T01:15:26.539Z,0
2017-04-08T01:15:58.808Z,0
2017-04-08T01:16:31.057Z,0
2017-04-08T01:17:03.309Z,0
2017-04-08T01:17:35.580Z,0
2017-04-08T01:18:07.862Z,0
2017-04-08T01:18:40.112Z,0
2017-04-08T01:19:12.368Z,0
2017-04-08T01:19:44.629Z,0
2017-04-08T01:20:16.863Z,0
2017-04-08T01:20:49.635Z,0
2017-04-08T01:21:22.599Z,0
2017-04-08T01:21:54.851Z,0
2017-04-08T01:22:27.127Z,0
2017-04-08T01:22:59.374Z,0
2017-04-08T01:23:31.611Z,0
2017-04-08T01:24:03.894Z,0
2017-04-08T01:24:36.153Z,0
2017-04-08T01:25:09.108Z,0
2017-04-08T01:25:41.512Z,0
2017-04-08T01:26:13.766Z,0
2017-04-08T01:26:46.016Z,0
2017-04-08T01:27:18.254Z,0
2017-04-08T01:27:50.502Z,0
2017-04-08T01:28:22.740Z,0
2017-04-08T01:28:54.993Z,0
2017-04-08T01:29:27.232Z,0
2017-04-08T01:29:59.479Z,0
2017-04-08T01:30:31.734Z,0
2017-04-08T01:31:04.612Z,0
2017-04-08T01:31:36.859Z,0
2017-04-08T01:32:09.115Z,0
2017-04-08T01:32:41.358Z,0
2017-04-08T01:33:13.586Z,0
2017-04-08T01:33:45.820Z,0
2017-04-08T01:34:18.589Z,0
2017-04-08T01:34:51.643Z,0
2017-04-08T01:35:24.003Z,0
2017-04-08T01:35:56.290Z,0
2017-04-08T01:36:28.553Z,0
2017-04-08T01:37:00.826Z,0
2017-04-08T01:37:33.074Z,0
2017-04-08T01:38:05.351Z,0
2017-04-08T01:38:38.084Z,0
2017-04-08T01:39:10.327Z,0
2017-04-08T01:39:42.578Z,0
2017-04-08T01:40:14.834Z,0
2017-04-08T01:40:47.078Z,0
2017-04-08T01:41:19.329Z,0
2017-04-08T01:41:51.572Z,0
2017-04-08T01:42:23.948Z,0
2017-04-08T01:42:56.214Z,0
2017-04-08T01:43:28.467Z,0
2017-04-08T01:44:00.710Z,0
2017-04-08T01:44:32.958Z,0
2017-04-08T01:45:05.211Z,0
2017-04-08T01:45:38.150Z,0
2017-04-08T01:46:10.401Z,0
2017-04-08T01:46:42.672Z,0
2017-04-08T01:47:14.914Z,0
2017-04-08T01:47:47.228Z,0
2017-04-08T01:48:19.474Z,0
2017-04-08T01:48:52.621Z,0
2017-04-08T01:49:25.444Z,0
2017-04-08T01:49:57.707Z,0
2017-04-08T01:50:29.956Z,0
2017-04-08T01:51:02.230Z,0
2017-04-08T01:51:35.116Z,0
2017-04-08T01:52:07.407Z,0
2017-04-08T01:52:39.722Z,0
2017-04-08T01:53:12.027Z,0
2017-04-08T01:53:44.353Z,0
2017-04-08T01:54:16.669Z,0
2017-04-08T01:54:48.982Z,0
2017-04-08T01:55:21.280Z,0
2017-04-08T01:55:53.589Z,0
2017-04-08T01:56:25.897Z,0
2017-04-08T01:56:58.214Z,0
2017-04-08T01:57:30.538Z,0
2017-04-08T01:58:02.848Z,0
2017-04-08T01:58:35.168Z,0
2017-04-08T01:59:07.481Z,0
2017-04-08T01:59:39.790Z,0
2017-04-08T02:00:12.092Z,0
2017-04-08T02:00:44.407Z,0
2017-04-08T02:01:16.717Z,0
2017-04-08T02:01:49.037Z,0
2017-04-08T02:02:21.348Z,0
2017-04-08T02:02:53.654Z,0
2017-04-08T02:03:25.968Z,0
2017-04-08T02:03:58.265Z,0
2017-04-08T02:04:30.581Z,0
2017-04-08T02:05:02.891Z,0
2017-04-08T02:05:35.210Z,0
2017-04-08T02:06:07.515Z,0
2017-04-08T02:06:39.821Z,0
2017-04-08T02:07:12.144Z,0
2017-04-08T02:07:44.465Z,0
2017-04-08T02:08:16.772Z,0
2017-04-08T02:08:49.074Z,0
2017-04-08T02:09:21.381Z,0
2017-04-08T02:09:53.672Z,0
2017-04-08T02:10:25.997Z,0
2017-04-08T02:10:58.322Z,0
2017-04-08T02:11:30.619Z,0
2017-04-08T02:12:02.934Z,0
2017-04-08T02:12:35.251Z,0
2017-04-08T02:13:07.569Z,0
2017-04-08T02:13:39.899Z,0
2017-04-08T02:14:12.209Z,0
2017-04-08T02:14:44.518Z,0
2017-04-08T02:15:16.826Z,0
2017-04-08T02:15:49.131Z,0
2017-04-08T02:16:21.440Z,0
2017-04-08T02:16:53.755Z,0
2017-04-08T02:17:26.075Z,0
2017-04-08T02:17:58.377Z,0
2017-04-08T02:18:30.685Z,0
2017-04-08T02:19:02.971Z,0
2017-04-08T02:19:35.275Z,0
2017-04-08T02:20:07.604Z,0
2017-04-08T02:20:39.917Z,0
2017-04-08T02:21:12.226Z,0
2017-04-08T02:21:44.544Z,0
2017-04-08T02:22:16.825Z,0
2017-04-08T02:22:49.073Z,0
2017-04-08T02:23:21.317Z,0
2017-04-08T02:23:53.604Z,0
2017-04-08T02:24:25.845Z,0
2017-04-08T02:24:58.279Z,0
2017-04-08T02:25:30.564Z,0
2017-04-08T02:26:02.820Z,0
2017-04-08T02:26:35.071Z,0
2017-04-08T02:27:07.435Z,0
2017-04-08T02:27:39.705Z,0
2017-04-08T02:28:12.016Z,0
2017-04-08T02:28:44.267Z,0
2017-04-08T02:29:17.515Z,0
2017-04-08T02:29:49.766Z,0
2017-04-08T02:30:22.015Z,0
2017-04-08T02:30:54.273Z,0
2017-04-08T02:31:26.521Z,0
2017-04-08T02:31:58.817Z,0
2017-04-08T02:32:31.118Z,0
2017-04-08T02:33:03.431Z,0
2017-04-08T02:33:35.750Z,0
2017-04-08T02:34:08.058Z,0
2017-04-08T02:34:40.366Z,0
2017-04-08T02:35:12.667Z,0
2017-04-08T02:35:44.970Z,0
2017-04-08T02:36:17.276Z,0
2017-04-08T02:36:49.591Z,0
2017-04-08T02:37:21.895Z,0
2017-04-08T02:37:54.211Z,0
2017-04-08T02:38:26.538Z,0
2017-04-08T02:38:58.851Z,0
2017-04-08T02:39:31.161Z,0
2017-04-08T02:40:03.488Z,0
2017-04-08T02:40:35.789Z,0
2017-04-08T02:41:08.094Z,0
2017-04-08T02:41:40.390Z,0
2017-04-08T02:42:12.698Z,0
2017-04-08T02:42:45.008Z,0
2017-04-08T02:43:17.317Z,0
2017-04-08T02:43:49.622Z,0
2017-04-08T02:44:21.932Z,0
2017-04-08T02:44:54.250Z,0
2017-04-08T02:45:26.579Z,0
2017-04-08T02:45:58.900Z,0
2017-04-08T02:46:31.211Z,0
2017-04-08T02:47:03.529Z,0
2017-04-08T02:47:35.855Z,0
2017-04-08T02:48:08.175Z,0
2017-04-08T02:48:40.481Z,0
2017-04-08T02:49:12.780Z,0
2017-04-08T02:49:45.093Z,0
2017-04-08T02:50:17.409Z,0
2017-04-08T02:50:49.699Z,0
2017-04-08T02:51:21.995Z,0
2017-04-08T02:51:54.313Z,0
2017-04-08T02:52:26.616Z,0
2017-04-08T02:52:58.910Z,0
2017-04-08T02:53:31.223Z,0
2017-04-08T02:54:03.552Z,0
2017-04-08T02:54:35.876Z,0
2017-04-08T02:55:08.187Z,0
2017-04-08T02:55:40.496Z,0
2017-04-08T02:56:12.804Z,0
2017-04-08T02:56:45.108Z,0
2017-04-08T02:57:17.410Z,0
2017-04-08T02:57:49.720Z,0
2017-04-08T02:58:22.055Z,0
2017-04-08T02:58:54.357Z,0
2017-04-08T02:59:26.670Z,0
2017-04-08T02:59:58.985Z,0
2017-04-08T03:00:31.293Z,0
2017-04-08T03:01:03.614Z,0
2017-04-08T03:01:35.935Z,0
2017-04-08T03:02:08.246Z,0
2017-04-08T03:02:40.546Z,0
2017-04-08T03:03:12.843Z,0
2017-04-08T03:03:45.167Z,0
2017-04-08T03:04:17.475Z,0
2017-04-08T03:04:49.780Z,0
2017-04-08T03:05:22.078Z,0
2017-04-08T03:05:54.393Z,0
2017-04-08T03:06:26.696Z,0
2017-04-08T03:06:58.991Z,0
2017-04-08T03:07:31.311Z,0
2017-04-08T03:08:03.605Z,0
2017-04-08T03:08:35.914Z,0
2017-04-08T03:09:08.226Z,0
2017-04-08T03:09:40.529Z,0
2017-04-08T03:10:12.844Z,0
2017-04-08T03:10:45.152Z,0
2017-04-08T03:11:17.453Z,0
2017-04-08T03:11:49.768Z,0
2017-04-08T03:12:22.066Z,0
2017-04-08T03:12:54.378Z,0
2017-04-08T03:13:26.675Z,0
2017-04-08T03:13:58.986Z,0
2017-04-08T03:14:31.313Z,0
2017-04-08T03:15:03.618Z,0
2017-04-08T03:15:35.916Z,0
2017-04-08T03:16:08.222Z,0
2017-04-08T03:16:40.521Z,0
2017-04-08T03:17:12.829Z,0
2017-04-08T03:17:45.132Z,0
2017-04-08T03:18:17.456Z,0
2017-04-08T03:18:49.778Z,0
2017-04-08T03:19:22.073Z,0
2017-04-08T03:19:54.391Z,0
2017-04-08T03:20:26.704Z,0
2017-04-08T03:20:59.011Z,0
2017-04-08T03:21:31.328Z,0
2017-04-08T03:22:03.600Z,0
2017-04-08T03:22:35.856Z,0
2017-04-08T03:23:08.093Z,0
2017-04-08T03:23:40.354Z,0
2017-04-08T03:24:12.622Z,0
2017-04-08T03:24:44.864Z,0
2017-04-08T03:25:17.117Z,0
2017-04-08T03:25:50.000Z,0
2017-04-08T03:26:23.106Z,0
2017-04-08T03:26:55.345Z,0
2017-04-08T03:27:27.585Z,0
2017-04-08T03:27:59.904Z,0
2017-04-08T03:28:32.169Z,0
2017-04-08T03:29:04.410Z,0
2017-04-08T03:29:36.661Z,0
2017-04-08T03:30:09.548Z,0
2017-04-08T03:30:41.823Z,0
2017-04-08T03:31:14.065Z,0
2017-04-08T03:31:46.312Z,0
2017-04-08T03:32:18.554Z,0
2017-04-08T03:32:50.804Z,0
2017-04-08T03:33:24.036Z,0
2017-04-08T03:33:57.147Z,0
2017-04-08T03:34:29.380Z,0
2017-04-08T03:35:01.646Z,0
2017-04-08T03:35:33.910Z,0
2017-04-08T03:36:06.178Z,0
2017-04-08T03:36:38.413Z,0
2017-04-08T03:37:10.678Z,0
2017-04-08T03:37:42.928Z,0
2017-04-08T03:38:15.179Z,0
2017-04-08T03:38:47.410Z,0
2017-04-08T03:39:19.652Z,0
2017-04-08T03:39:51.920Z,0
2017-04-08T03:40:24.167Z,0
2017-04-08T03:40:56.410Z,0
2017-04-08T03:41:28.649Z,0
2017-04-08T03:42:00.917Z,0
2017-04-08T03:42:33.223Z,0
2017-04-08T03:43:05.527Z,0
2017-04-08T03:43:37.826Z,0
2017-04-08T03:44:10.138Z,0
2017-04-08T03:44:42.483Z,0
2017-04-08T03:45:14.792Z,0
2017-04-08T03:45:47.100Z,0
2017-04-08T03:46:19.408Z,0
2017-04-08T03:46:51.715Z,0
2017-04-08T03:47:24.026Z,0
2017-04-08T03:47:56.344Z,0
2017-04-08T03:48:28.644Z,0
2017-04-08T03:49:00.940Z,0
2017-04-08T03:49:33.264Z,0
2017-04-08T03:50:05.563Z,0
2017-04-08T03:50:37.866Z,0
2017-04-08T03:51:10.167Z,0
2017-04-08T03:51:42.470Z,0
2017-04-08T03:52:14.784Z,0
2017-04-08T03:52:47.099Z,0
2017-04-08T03:53:19.417Z,0
2017-04-08T03:53:51.733Z,0
2017-04-08T03:54:24.035Z,0
2017-04-08T03:54:56.340Z,0
2017-04-08T03:55:28.659Z,0
2017-04-08T03:56:00.972Z,0
2017-04-08T03:56:33.270Z,0
2017-04-08T03:57:05.581Z,0
2017-04-08T03:57:37.904Z,0
2017-04-08T03:58:10.219Z,0
2017-04-08T03:58:42.556Z,0
2017-04-08T03:59:14.892Z,0
2017-04-08T03:59:47.199Z,0
2017-04-08T04:00:19.513Z,0
2017-04-08T04:00:51.820Z,0
2017-04-08T04:01:24.134Z,0
2017-04-08T04:01:56.437Z,0
2017-04-08T04:02:28.744Z,0
2017-04-08T04:03:02.053Z,0
2017-04-08T04:03:34.355Z,0
2017-04-08T04:04:06.710Z,0
2017-04-08T04:04:39.012Z,0
2017-04-08T04:05:11.358Z,0
2017-04-08T04:05:43.675Z,0
2017-04-08T04:06:15.991Z,0
2017-04-08T04:06:48.292Z,0
2017-04-08T04:07:20.619Z,0
2017-04-08T04:07:52.934Z,0
2017-04-08T04:08:25.246Z,0
2017-04-08T04:08:57.563Z,0
2017-04-08T04:09:29.884Z,0
2017-04-08T04:10:02.188Z,0
2017-04-08T04:10:34.487Z,0
2017-04-08T04:11:06.805Z,0
2017-04-08T04:11:39.117Z,0
2017-04-08T04:12:11.439Z,0
2017-04-08T04:12:43.754Z,0
2017-04-08T04:13:16.055Z,0
2017-04-08T04:13:48.359Z,0
2017-04-08T04:14:20.669Z,0
2017-04-08T04:14:52.971Z,0
2017-04-08T04:15:25.271Z,0
2017-04-08T04:15:57.579Z,0
2017-04-08T04:16:29.885Z,0
2017-04-08T04:17:02.192Z,0
2017-04-08T04:17:34.497Z,0
2017-04-08T04:18:06.807Z,0
2017-04-08T04:18:39.114Z,0
2017-04-08T04:19:11.421Z,0
2017-04-08T04:19:43.742Z,0
2017-04-08T04:20:16.037Z,0
2017-04-08T04:20:48.344Z,0
2017-04-08T04:21:20.645Z,0
2017-04-08T04:21:52.954Z,0
2017-04-08T04:22:25.264Z,0
2017-04-08T04:22:57.568Z,0
2017-04-08T04:23:29.884Z,0
2017-04-08T04:24:02.196Z,0
2017-04-08T04:24:34.511Z,0
2017-04-08T04:25:06.820Z,0
2017-04-08T04:25:39.128Z,0
2017-04-08T04:26:11.435Z,0
2017-04-08T04:26:43.748Z,0
2017-04-08T04:27:16.065Z,0
2017-04-08T04:27:48.379Z,0
2017-04-08T04:28:20.693Z,0
2017-04-08T04:28:52.999Z,0
2017-04-08T04:29:25.325Z,0
2017-04-08T04:29:57.645Z,0
2017-04-08T04:30:29.968Z,0
2017-04-08T04:31:02.265Z,0
2017-04-08T04:31:34.597Z,0
2017-04-08T04:32:06.871Z,0
2017-04-08T04:32:39.102Z,4
2017-04-08T04:33:11.338Z,4
2017-04-08T04:33:43.581Z,4
2017-04-08T04:34:15.831Z,4
2017-04-08T04:34:48.062Z,4
2017-04-08T04:35:20.288Z,4
2017-04-08T04:35:52.552Z,0
2017-04-08T04:36:24.840Z,4
2017-04-08T04:36:57.091Z,4
2017-04-08T04:37:29.432Z,8
2017-04-08T04:38:01.670Z,8
2017-04-08T04:38:33.917Z,4
2017-04-08T04:39:06.181Z,8
2017-04-08T04:39:39.084Z,8
2017-04-08T04:40:11.349Z,8
2017-04-08T04:40:43.604Z,8
2017-04-08T04:41:15.868Z,12
2017-04-08T04:41:48.231Z,8
2017-04-08T04:42:20.477Z,8
2017-04-08T04:42:52.728Z,8
2017-04-08T04:43:24.980Z,12
2017-04-08T04:43:57.233Z,12
2017-04-08T04:44:29.481Z,12
2017-04-08T04:45:01.739Z,8
2017-04-08T04:45:34.021Z,12
2017-04-08T04:46:06.287Z,12
2017-04-08T04:46:38.542Z,12
2017-04-08T04:47:10.804Z,12
2017-04-08T04:47:43.056Z,12
2017-04-08T04:48:15.306Z,16
2017-04-08T04:48:47.545Z,12
2017-04-08T04:49:20.673Z,12
2017-04-08T04:49:52.931Z,16
2017-04-08T04:50:25.188Z,16
2017-04-08T04:50:57.585Z,16
2017-04-08T04:51:29.831Z,20
2017-04-08T04:52:02.108Z,20
2017-04-08T04:52:34.376Z,20
2017-04-08T04:53:06.641Z,24
2017-04-08T04:53:38.900Z,24
2017-04-08T04:54:11.157Z,28
2017-04-08T04:54:43.414Z,28
2017-04-08T04:55:15.650Z,32
2017-04-08T04:55:47.900Z,36
2017-04-08T04:56:20.172Z,36
2017-04-08T04:56:52.431Z,36
2017-04-08T04:57:25.214Z,40
2017-04-08T04:57:57.466Z,40
2017-04-08T04:58:29.713Z,40
2017-04-08T04:59:02.722Z,44
2017-04-08T04:59:34.965Z,44
2017-04-08T05:00:07.227Z,48
2017-04-08T05:00:39.571Z,52
2017-04-08T05:01:11.831Z,48
2017-04-08T05:01:44.091Z,48
2017-04-08T05:02:16.378Z,48
2017-04-08T05:02:48.708Z,48
2017-04-08T05:03:21.038Z,48
2017-04-08T05:03:53.363Z,48
2017-04-08T05:04:25.683Z,48
2017-04-08T05:04:57.980Z,48
2017-04-08T05:05:30.283Z,52
2017-04-08T05:06:02.597Z,48
2017-04-08T05:06:34.907Z,48
2017-04-08T05:07:07.209Z,52
2017-04-08T05:07:39.527Z,48
2017-04-08T05:08:11.831Z,56
2017-04-08T05:08:44.149Z,56
2017-04-08T05:09:16.462Z,56
2017-04-08T05:09:48.780Z,64
2017-04-08T05:10:21.091Z,68
2017-04-08T05:10:53.395Z,72
2017-04-08T05:11:25.702Z,76
2017-04-08T05:11:57.977Z,80
2017-04-08T05:12:30.230Z,84
2017-04-08T05:13:02.501Z,88
2017-04-08T05:13:34.744Z,88
2017-04-08T05:14:07.009Z,88
2017-04-08T05:14:39.245Z,88
2017-04-08T05:15:11.511Z,88
2017-04-08T05:15:43.763Z,84
2017-04-08T05:16:16.035Z,84
2017-04-08T05:16:48.281Z,84
2017-04-08T05:17:20.534Z,84
2017-04-08T05:17:53.636Z,84
2017-04-08T05:18:25.886Z,88
2017-04-08T05:18:58.200Z,92
2017-04-08T05:19:31.139Z,92
2017-04-08T05:20:03.404Z,96
2017-04-08T05:20:35.645Z,96
2017-04-08T05:21:07.903Z,96
2017-04-08T05:21:40.196Z,92
2017-04-08T05:22:12.454Z,96
2017-04-08T05:22:44.739Z,96
2017-04-08T05:23:17.001Z,96
2017-04-08T05:23:49.271Z,96
2017-04-08T05:24:21.649Z,96
2017-04-08T05:24:53.901Z,96
2017-04-08T05:25:26.160Z,100
2017-04-08T05:25:58.400Z,100
2017-04-08T05:26:30.668Z,104
2017-04-08T05:27:02.920Z,108
2017-04-08T05:27:35.165Z,112
2017-04-08T05:28:07.410Z,120
2017-04-08T05:28:40.227Z,124
2017-04-08T05:29:12.516Z,124
2017-04-08T05:29:45.642Z,124
2017-04-08T05:30:17.875Z,132
2017-04-08T05:30:50.120Z,132
2017-04-08T05:31:22.428Z,140
2017-04-08T05:31:54.684Z,144
2017-04-08T05:32:26.936Z,148
2017-04-08T05:32:59.175Z,156
2017-04-08T05:33:31.428Z,168
2017-04-08T05:34:03.672Z,176
2017-04-08T05:34:36.709Z,184
2017-04-08T05:35:08.948Z,192
2017-04-08T05:35:41.224Z,200
2017-04-08T05:36:13.467Z,208
2017-04-08T05:36:46.206Z,220
2017-04-08T05:37:18.474Z,228
2017-04-08T05:37:50.730Z,240
2017-04-08T05:38:22.993Z,248
2017-04-08T05:38:55.226Z,248
2017-04-08T05:39:27.470Z,248
2017-04-08T05:39:59.698Z,240
2017-04-08T05:40:31.964Z,236
2017-04-08T05:41:04.276Z,232
2017-04-08T05:41:36.525Z,232
2017-04-08T05:42:08.765Z,228
2017-04-08T05:42:41.016Z,224
2017-04-08T05:43:13.284Z,216
2017-04-08T05:43:45.530Z,216
2017-04-08T05:44:17.780Z,216
2017-04-08T05:44:50.010Z,216
2017-04-08T05:45:22.262Z,216
2017-04-08T05:45:54.502Z,224
2017-04-08T05:46:26.748Z,232
2017-04-08T05:46:59.129Z,236
2017-04-08T05:47:31.381Z,240
2017-04-08T05:48:04.274Z,244
2017-04-08T05:48:36.540Z,252
2017-04-08T05:49:08.795Z,260
2017-04-08T05:49:41.038Z,264
2017-04-08T05:50:13.314Z,272
2017-04-08T05:50:45.680Z,272
2017-04-08T05:51:18.658Z,272
2017-04-08T05:51:51.616Z,272
2017-04-08T05:52:23.917Z,280
2017-04-08T05:52:56.239Z,284
2017-04-08T05:53:28.569Z,292
2017-04-08T05:54:00.866Z,296
2017-04-08T05:54:33.168Z,292
2017-04-08T05:55:05.480Z,296
2017-04-08T05:55:37.802Z,292
2017-04-08T05:56:10.113Z,292
2017-04-08T05:56:42.432Z,300
2017-04-08T05:57:14.756Z,312
2017-04-08T05:57:47.085Z,316
2017-04-08T05:58:19.395Z,312
2017-04-08T05:58:51.717Z,308
2017-04-08T05:59:24.024Z,304
2017-04-08T05:59:56.318Z,312
2017-04-08T06:00:28.627Z,312
2017-04-08T06:01:00.947Z,312
2017-04-08T06:01:33.249Z,308
2017-04-08T06:02:05.525Z,312
2017-04-08T06:02:37.874Z,332
2017-04-08T06:03:10.143Z,356
2017-04-08T06:03:43.273Z,372
2017-04-08T06:04:16.298Z,376
2017-04-08T06:04:48.561Z,376
2017-04-08T06:05:21.855Z,380
2017-04-08T06:05:54.095Z,396
2017-04-08T06:06:26.340Z,408
2017-04-08T06:06:58.596Z,412
2017-04-08T06:07:30.833Z,424
2017-04-08T06:08:03.632Z,440
2017-04-08T06:08:35.861Z,448
2017-04-08T06:09:08.102Z,456
2017-04-08T06:09:40.359Z,460
2017-04-08T06:10:12.619Z,464
2017-04-08T06:10:44.861Z,464
2017-04-08T06:11:17.141Z,456
2017-04-08T06:11:49.389Z,444
2017-04-08T06:12:21.740Z,448
2017-04-08T06:12:54.056Z,484
2017-04-08T06:13:26.376Z,512
2017-04-08T06:13:58.747Z,532
2017-04-08T06:14:31.089Z,548
2017-04-08T06:15:03.405Z,564
2017-04-08T06:15:35.731Z,588
2017-04-08T06:16:08.052Z,592
2017-04-08T06:16:40.362Z,576
2017-04-08T06:17:12.687Z,560
2017-04-08T06:17:45.006Z,552
2017-04-08T06:18:17.326Z,568
2017-04-08T06:18:49.657Z,604
2017-04-08T06:19:21.968Z,644
2017-04-08T06:19:54.264Z,672
2017-04-08T06:20:26.567Z,676
2017-04-08T06:20:58.877Z,668
2017-04-08T06:21:31.187Z,652
2017-04-08T06:22:03.479Z,620
2017-04-08T06:22:35.728Z,600
2017-04-08T06:23:07.979Z,580
2017-04-08T06:23:40.225Z,568
2017-04-08T06:24:13.220Z,552
2017-04-08T06:24:45.465Z,536
2017-04-08T06:25:17.716Z,536
2017-04-08T06:25:49.979Z,556
2017-04-08T06:26:23.127Z,580
2017-04-08T06:26:55.399Z,592
2017-04-08T06:27:27.769Z,624
2017-04-08T06:28:00.010Z,668
2017-04-08T06:28:32.260Z,708
2017-04-08T06:29:04.507Z,740
2017-04-08T06:29:36.771Z,748
2017-04-08T06:30:09.011Z,736
2017-04-08T06:30:41.286Z,716
2017-04-08T06:31:14.316Z,688
2017-04-08T06:31:46.563Z,680
2017-04-08T06:32:18.798Z,692
2017-04-08T06:32:51.054Z,720
2017-04-08T06:33:23.314Z,756
2017-04-08T06:33:55.559Z,780
2017-04-08T06:34:27.804Z,772
2017-04-08T06:35:00.068Z,752
2017-04-08T06:35:33.221Z,756
2017-04-08T06:36:06.263Z,768
2017-04-08T06:36:38.544Z,780
2017-04-08T06:37:10.787Z,784
2017-04-08T06:37:43.071Z,780
2017-04-08T06:38:15.322Z,776
2017-04-08T06:38:47.640Z,788
2017-04-08T06:39:19.898Z,808
2017-04-08T06:39:52.144Z,816
2017-04-08T06:40:25.179Z,812
2017-04-08T06:40:57.423Z,804
2017-04-08T06:41:29.665Z,808
2017-04-08T06:42:01.961Z,828
2017-04-08T06:42:34.283Z,860
2017-04-08T06:43:06.596Z,888
2017-04-08T06:43:38.890Z,880
2017-04-08T06:44:11.192Z,896
2017-04-08T06:44:43.495Z,920
2017-04-08T06:45:15.815Z,920
2017-04-08T06:45:48.110Z,948
2017-04-08T06:46:20.418Z,984
2017-04-08T06:46:52.729Z,988
2017-04-08T06:47:25.029Z,964
2017-04-08T06:47:57.334Z,916
2017-04-08T06:48:29.643Z,876
2017-04-08T06:49:01.952Z,860
2017-04-08T06:49:34.261Z,840
2017-04-08T06:50:06.571Z,816
2017-04-08T06:50:38.887Z,808
2017-04-08T06:51:11.190Z,800
2017-04-08T06:51:43.502Z,788
2017-04-08T06:52:15.813Z,804
2017-04-08T06:52:48.116Z,832
2017-04-08T06:53:20.434Z,852
2017-04-08T06:53:52.750Z,856
2017-04-08T06:54:25.047Z,864
2017-04-08T06:54:57.359Z,864
2017-04-08T06:55:29.682Z,852
2017-04-08T06:56:01.995Z,884
2017-04-08T06:56:34.318Z,972
2017-04-08T06:57:06.630Z,1064
2017-04-08T06:57:38.950Z,1124
2017-04-08T06:58:11.279Z,1156
2017-04-08T06:58:43.595Z,1192
2017-04-08T06:59:15.897Z,1224
2017-04-08T06:59:48.233Z,1260
2017-04-08T07:00:20.541Z,1288
2017-04-08T07:00:52.840Z,1312
2017-04-08T07:01:25.172Z,1324
2017-04-08T07:01:57.479Z,1328
2017-04-08T07:02:29.725Z,1336
2017-04-08T07:03:01.964Z,1348
2017-04-08T07:03:34.233Z,1348
2017-04-08T07:04:06.533Z,1344
2017-04-08T07:04:38.801Z,1340
2017-04-08T07:05:11.056Z,1332
2017-04-08T07:05:43.309Z,1364
2017-04-08T07:06:15.550Z,1416
2017-04-08T07:06:47.796Z,1428
2017-04-08T07:07:20.045Z,1404
2017-04-08T07:07:52.308Z,1380
2017-04-08T07:08:24.572Z,1340
2017-04-08T07:08:56.820Z,1308
2017-04-08T07:09:29.057Z,1296
2017-04-08T07:10:01.309Z,1296
2017-04-08T07:10:33.573Z,1288
2017-04-08T07:11:06.832Z,1248
2017-04-08T07:11:39.081Z,1204
2017-04-08T07:12:11.370Z,1184
2017-04-08T07:12:43.692Z,1196
2017-04-08T07:13:16.003Z,1228
2017-04-08T07:13:48.305Z,1256
2017-04-08T07:14:20.626Z,1284
2017-04-08T07:14:52.933Z,1328
2017-04-08T07:15:25.237Z,1376
2017-04-08T07:15:57.534Z,1424
2017-04-08T07:16:29.843Z,1456
2017-04-08T07:17:02.153Z,1476
2017-04-08T07:17:34.466Z,1484
2017-04-08T07:18:06.779Z,1468
2017-04-08T07:18:39.090Z,1480
2017-04-08T07:19:11.392Z,1516
2017-04-08T07:19:43.703Z,1568
2017-04-08T07:20:16.006Z,1600
2017-04-08T07:20:48.322Z,1612
2017-04-08T07:21:20.665Z,1628
2017-04-08T07:21:52.943Z,1656
2017-04-08T07:22:25.195Z,1644
2017-04-08T07:22:57.451Z,1648
2017-04-08T07:23:29.702Z,1648
2017-04-08T07:24:01.946Z,1648
2017-04-08T07:24:34.194Z,1656
2017-04-08T07:25:06.444Z,1652
2017-04-08T07:25:38.718Z,1652
2017-04-08T07:26:10.979Z,1648
2017-04-08T07:26:43.245Z,1652
2017-04-08T07:27:15.502Z,1652
2017-04-08T07:27:47.751Z,1648
2017-04-08T07:28:19.995Z,1644
2017-04-08T07:28:52.310Z,1652
2017-04-08T07:29:24.574Z,1664
2017-04-08T07:29:56.839Z,1664
2017-04-08T07:30:29.097Z,1676
2017-04-08T07:31:01.345Z,1676
2017-04-08T07:31:33.603Z,1672
2017-04-08T07:32:05.890Z,1672
2017-04-08T07:32:38.187Z,1672
2017-04-08T07:33:10.496Z,1668
2017-04-08T07:33:42.795Z,1672
2017-04-08T07:34:15.102Z,1696
2017-04-08T07:34:47.413Z,1708
2017-04-08T07:35:19.760Z,1712
2017-04-08T07:35:52.073Z,1700
2017-04-08T07:36:24.387Z,1712
2017-04-08T07:36:56.694Z,1728
2017-04-08T07:37:29.002Z,1724
2017-04-08T07:38:01.305Z,1740
2017-04-08T07:38:33.617Z,1752
2017-04-08T07:39:05.925Z,1748
2017-04-08T07:39:38.242Z,1740
2017-04-08T07:40:10.538Z,1736
2017-04-08T07:40:42.849Z,1732
2017-04-08T07:41:15.163Z,1732
2017-04-08T07:41:47.491Z,1728
2017-04-08T07:42:19.765Z,1724
2017-04-08T07:42:52.770Z,1724
2017-04-08T07:43:25.034Z,1728
2017-04-08T07:43:57.298Z,1732